Terminal Aerodrome Forecast
Issued by NWS

Home | Current Version | Previous Version | Text Only | Print | Product List | Glossary On
Versions: 1 2 3 4 5 6 7 8 9 10 11 12 13 14 15 16
000
FTUS43 KILX 032336
TAFBMI
TAF
KBMI 032336Z 0400/0424 08005KT P6SM BKN025 BKN120
     FM040300 VRB05KT P6SM SCT025 BKN100
     FM041000 13004KT P6SM VCSH OVC050
     FM041200 13005KT 2SM -SN BR OVC020
     FM041500 14006KT 1SM -SN BR OVC008
     FM041800 15005KT 1SM -SNRA OVC004
     FM042100 18005KT P6SM OVC008=

USA.gov is the U.S. government's official web portal to all federal, state and local government web resources and services.